»·PEaware :: N326MC KABQ-KAMA

N326MC :: KABQ-KAMA

FLIGHT INFORMATION

Flight Status: Arrived
Operator: Privately registered:
United States
More flights under this callsign
Pilot: Anonymous 5456 (5456)
Aircraft: BOEING 737-200
(B732)
More flights by this aircraft type
Origin: KABQ Albuquerque Intl Sunport
United States
Destination: KAMA Amarillo Intl
United States
More flights between these airports :: More routes between these airports
Route: +ABQ3 TCC PNH
File this flight plan on PilotEdge
Remarks:
Altitude:
(Current/Filed)
19,000ft
Speed:
(Current/Filed)
480kts
Departed: 19-Jan-18 05:45 PM
Arrived: 19-Jan-18 06:29 PM
Distance/Time
Traveled:
240nm/0:44
Distance/Time
To Go:
Arrived

Flight Plot

Page will automatically refresh every two minutes.

Flight plan parsing failed; only flown route is shown


Map Options




Map Legend


Flown Route
Filed Route
Departure Airport
Arrival Airport
Navaid (VOR, NDB)
Fix

Horizontal Profiles

Position Reports

Time Latitude Longitude Heading Altitude Ground
Speed
19-Jan-18 17:36 35.036316 -106.617754 140 5363ft 0kts
19-Jan-18 17:37 35.036316 -106.617754 140 5363ft 0kts
19-Jan-18 17:38 35.036316 -106.617754 140 5363ft 0kts
19-Jan-18 17:39 35.036316 -106.617754 140 5363ft 0kts
19-Jan-18 17:40 35.036316 -106.617754 140 5363ft 0kts
19-Jan-18 17:41 35.036316 -106.617754 139 5363ft 0kts
19-Jan-18 17:42 35.036316 -106.617754 139 5363ft 0kts
19-Jan-18 17:43 35.036316 -106.617754 140 5363ft 0kts
19-Jan-18 17:44 35.036316 -106.617754 140 5363ft 0kts
19-Jan-18 17:45 35.036316 -106.617754 140 5363ft 0kts
19-Jan-18 17:46 35.035321 -106.618063 227 5363ft 13kts
19-Jan-18 17:47 35.032523 -106.620342 224 5363ft 14kts
19-Jan-18 17:48 35.029162 -106.624384 224 5363ft 19kts
19-Jan-18 17:49 35.025170 -106.629203 224 5363ft 20kts
19-Jan-18 17:50 35.022663 -106.630094 42 5363ft 5kts
19-Jan-18 17:51 35.026491 -106.625486 44 5363ft 98kts
19-Jan-18 17:52 35.063177 -106.592457 351 7077ft 190kts
19-Jan-18 17:53 35.113187 -106.619179 330 9373ft 212kts
19-Jan-18 17:54 35.174482 -106.640150 16 10620ft 293kts
19-Jan-18 17:55 35.206735 -106.552030 86 13116ft 322kts
19-Jan-18 17:56 35.208270 -106.441236 87 15414ft 337kts
19-Jan-18 17:57 35.208712 -106.320879 89 16876ft 376kts
19-Jan-18 17:58 35.208845 -106.191739 89 18868ft 388kts
19-Jan-18 17:59 35.208815 -106.051842 89 19077ft 441kts
19-Jan-18 18:00 35.208589 -105.894803 89 19301ft 471kts
19-Jan-18 18:01 35.208151 -105.739067 89 19063ft 457kts
19-Jan-18 18:02 35.207532 -105.582621 89 19064ft 462kts
19-Jan-18 18:03 35.206706 -105.425479 89 19032ft 466kts
19-Jan-18 18:04 35.205693 -105.270649 90 19008ft 467kts
19-Jan-18 18:05 35.204445 -105.111502 90 19008ft 468kts
19-Jan-18 18:06 35.202966 -104.952850 89 19010ft 468kts
19-Jan-18 18:07 35.201325 -104.793757 89 19010ft 467kts
19-Jan-18 18:08 35.199473 -104.635414 89 19011ft 467kts
19-Jan-18 18:09 35.197396 -104.476209 89 18921ft 469kts
19-Jan-18 18:10 35.195129 -104.319234 89 18848ft 459kts
19-Jan-18 18:11 35.192719 -104.165486 89 18850ft 447kts
19-Jan-18 18:12 35.190174 -104.014135 89 18856ft 449kts
19-Jan-18 18:13 35.187395 -103.860685 89 18856ft 454kts
19-Jan-18 18:14 35.184395 -103.706148 89 18856ft 457kts
19-Jan-18 18:15 35.183869 -103.550670 85 18859ft 458kts
19-Jan-18 18:16 35.189245 -103.395888 85 18867ft 459kts
19-Jan-18 18:17 35.194434 -103.240363 86 18862ft 460kts
19-Jan-18 18:18 35.199488 -103.083877 87 18863ft 460kts
19-Jan-18 18:19 35.204284 -102.927736 87 18811ft 459kts
19-Jan-18 18:20 35.208826 -102.772790 87 17706ft 446kts
19-Jan-18 18:21 35.212901 -102.628606 87 16023ft 406kts
19-Jan-18 18:22 35.216515 -102.495279 87 14281ft 381kts
19-Jan-18 18:23 35.219835 -102.368060 87 12553ft 370kts
19-Jan-18 18:24 35.222835 -102.247380 88 11018ft 358kts
19-Jan-18 18:25 35.225611 -102.131190 87 11010ft 337kts
19-Jan-18 18:26 35.228271 -102.016965 88 11001ft 335kts
19-Jan-18 18:27 35.230749 -101.906243 89 10239ft 311kts
19-Jan-18 18:28 35.266834 -101.822475 47 8819ft 264kts
19-Jan-18 18:29 35.311046 -101.762036 47 7588ft 212kts
19-Jan-18 18:30 35.345730 -101.712246 63 7177ft 185kts
19-Jan-18 18:31 35.332972 -101.660645 146 6355ft 165kts
19-Jan-18 18:32 35.292752 -101.640087 173 5583ft 149kts
19-Jan-18 18:33 35.261025 -101.662147 225 4679ft 146kts
19-Jan-18 18:34 35.235587 -101.694137 224 3775ft 122kts
19-Jan-18 18:35 35.220484 -101.713222 205 3615ft 15kts

Navigation Log

Ident Type
Flight plan parsing failed, navigation log unavailable